EGUB

RAF Benson Airport

Benson, United Kingdom
METAR EGUB 190450Z AUTO 18008KT 9999 // FEW043/// BKN050/// 07/06 Q1002
Observed Flight Rules
Dec-19 @ 04:50 UTC (39 minutes ago) Visual Flight Rules
Wind Visibility Clouds
180° at 8 knots 10,000+ meters
  • Few at 4,300' AGL
  • Broken at 5,000' AGL
Temperatures Readings
Current 7°C / 45°F
Dewpoint 6°C / 43°F
Humidity 93%
Altimeter 29.59" Hg
Pressure 1002 hPa
Elevation 63
METAR EGUB 190450Z AUTO 18008KT 9999 // FEW043/// BKN050/// 07/06 Q1002
Observed Flight Rules
Dec-19 @ 04:50 UTC
(39 minutes ago)
VFR
Wind Visibility
180° at 8 knots 10,000+ meters
Clouds
  • Few at 4,300' AGL
  • Broken at 5,000' AGL
Temperature Dewpoint
7°C / 45°F 6°C / 43°F
Humidity Altimeter Pressure
93% 29.59" Hg 1002 hPa